sensor_id;sensor_type;location;lat;lon;timestamp;pressure;altitude;pressure_sealevel;temperature
64947;BMP280;51469;52.150;4.682;2024-01-15T00:00:17;100562.50;;;9.97
64947;BMP280;51469;52.150;4.682;2024-01-15T00:02:43;100564.47;;;10.00
64947;BMP280;51469;52.150;4.682;2024-01-15T00:05:08;100555.50;;;10.03
64947;BMP280;51469;52.150;4.682;2024-01-15T00:07:33;100552.81;;;10.06
64947;BMP280;51469;52.150;4.682;2024-01-15T00:09:58;100555.44;;;9.99
64947;BMP280;51469;52.150;4.682;2024-01-15T00:12:24;100558.38;;;9.77
64947;BMP280;51469;52.150;4.682;2024-01-15T00:14:49;100551.28;;;9.76
64947;BMP280;51469;52.150;4.682;2024-01-15T00:17:14;100549.78;;;9.78
64947;BMP280;51469;52.150;4.682;2024-01-15T00:19:40;100552.97;;;9.84
64947;BMP280;51469;52.150;4.682;2024-01-15T00:22:05;100540.75;;;9.78
64947;BMP280;51469;52.150;4.682;2024-01-15T00:24:30;100533.94;;;10.01
64947;BMP280;51469;52.150;4.682;2024-01-15T00:26:56;100538.16;;;9.92
64947;BMP280;51469;52.150;4.682;2024-01-15T00:29:21;100531.94;;;9.95
64947;BMP280;51469;52.150;4.682;2024-01-15T00:31:47;100525.28;;;9.96
64947;BMP280;51469;52.150;4.682;2024-01-15T00:34:12;100522.50;;;9.89
64947;BMP280;51469;52.150;4.682;2024-01-15T00:36:37;100507.53;;;9.83
64947;BMP280;51469;52.150;4.682;2024-01-15T00:39:03;100531.88;;;9.88
64947;BMP280;51469;52.150;4.682;2024-01-15T00:41:30;100514.66;;;9.91
64947;BMP280;51469;52.150;4.682;2024-01-15T00:43:56;100506.91;;;10.00
64947;BMP280;51469;52.150;4.682;2024-01-15T00:46:21;100504.59;;;10.02
64947;BMP280;51469;52.150;4.682;2024-01-15T00:48:47;100499.97;;;10.09
64947;BMP280;51469;52.150;4.682;2024-01-15T00:51:12;100503.91;;;10.15
64947;BMP280;51469;52.150;4.682;2024-01-15T00:53:37;100506.25;;;10.10
64947;BMP280;51469;52.150;4.682;2024-01-15T00:56:03;100493.69;;;10.09
64947;BMP280;51469;52.150;4.682;2024-01-15T00:58:28;100490.47;;;10.00
64947;BMP280;51469;52.150;4.682;2024-01-15T01:03:29;100492.97;;;10.19
64947;BMP280;51469;52.150;4.682;2024-01-15T01:05:54;100489.97;;;10.31
64947;BMP280;51469;52.150;4.682;2024-01-15T01:08:20;100491.47;;;10.25
64947;BMP280;51469;52.150;4.682;2024-01-15T01:10:45;100488.75;;;10.25
64947;BMP280;51469;52.150;4.682;2024-01-15T01:13:10;100504.00;;;10.26
64947;BMP280;51469;52.150;4.682;2024-01-15T01:15:36;100488.97;;;10.06
64947;BMP280;51469;52.150;4.682;2024-01-15T01:18:01;100500.75;;;10.06
64947;BMP280;51469;52.150;4.682;2024-01-15T01:20:27;100491.34;;;10.11
64947;BMP280;51469;52.150;4.682;2024-01-15T01:22:52;100481.31;;;10.22
64947;BMP280;51469;52.150;4.682;2024-01-15T01:25:17;100479.72;;;10.24
64947;BMP280;51469;52.150;4.682;2024-01-15T01:27:43;100483.69;;;10.30
64947;BMP280;51469;52.150;4.682;2024-01-15T01:30:09;100485.25;;;10.28
64947;BMP280;51469;52.150;4.682;2024-01-15T01:32:34;100476.66;;;10.33
64947;BMP280;51469;52.150;4.682;2024-01-15T01:35:00;100482.56;;;10.35
64947;BMP280;51469;52.150;4.682;2024-01-15T01:37:25;100487.59;;;10.29
64947;BMP280;51469;52.150;4.682;2024-01-15T01:39:50;100475.41;;;10.20
64947;BMP280;51469;52.150;4.682;2024-01-15T01:42:16;100484.75;;;10.19
64947;BMP280;51469;52.150;4.682;2024-01-15T01:44:41;100482.00;;;10.12
64947;BMP280;51469;52.150;4.682;2024-01-15T01:47:07;100475.28;;;10.06
64947;BMP280;51469;52.150;4.682;2024-01-15T01:49:33;100463.84;;;9.97
64947;BMP280;51469;52.150;4.682;2024-01-15T01:52:01;100470.78;;;9.84
64947;BMP280;51469;52.150;4.682;2024-01-15T01:54:29;100476.25;;;9.84
64947;BMP280;51469;52.150;4.682;2024-01-15T01:56:57;100470.28;;;9.75
64947;BMP280;51469;52.150;4.682;2024-01-15T01:59:23;100472.94;;;9.68
64947;BMP280;51469;52.150;4.682;2024-01-15T02:01:50;100487.50;;;9.75
64947;BMP280;51469;52.150;4.682;2024-01-15T02:04:17;100486.47;;;9.87
64947;BMP280;51469;52.150;4.682;2024-01-15T02:06:42;100484.16;;;9.89
64947;BMP280;51469;52.150;4.682;2024-01-15T02:09:08;100473.66;;;9.98
64947;BMP280;51469;52.150;4.682;2024-01-15T02:11:34;100468.44;;;9.86
64947;BMP280;51469;52.150;4.682;2024-01-15T02:13:59;100475.97;;;9.96
64947;BMP280;51469;52.150;4.682;2024-01-15T02:16:25;100474.03;;;10.00
64947;BMP280;51469;52.150;4.682;2024-01-15T02:18:50;100474.09;;;10.07
64947;BMP280;51469;52.150;4.682;2024-01-15T02:21:15;100481.22;;;10.15
64947;BMP280;51469;52.150;4.682;2024-01-15T02:23:41;100479.63;;;10.14
64947;BMP280;51469;52.150;4.682;2024-01-15T02:26:06;100465.88;;;10.07
64947;BMP280;51469;52.150;4.682;2024-01-15T02:28:33;100472.59;;;10.13
64947;BMP280;51469;52.150;4.682;2024-01-15T02:30:59;100464.69;;;10.08
64947;BMP280;51469;52.150;4.682;2024-01-15T02:33:24;100458.53;;;10.18
64947;BMP280;51469;52.150;4.682;2024-01-15T02:35:50;100453.03;;;10.14
64947;BMP280;51469;52.150;4.682;2024-01-15T02:38:15;100453.03;;;10.18
64947;BMP280;51469;52.150;4.682;2024-01-15T02:40:41;100454.25;;;10.24
64947;BMP280;51469;52.150;4.682;2024-01-15T02:43:06;100447.50;;;10.11
64947;BMP280;51469;52.150;4.682;2024-01-15T02:45:32;100445.97;;;10.13
64947;BMP280;51469;52.150;4.682;2024-01-15T02:47:57;100447.88;;;10.06
64947;BMP280;51469;52.150;4.682;2024-01-15T02:50:22;100452.19;;;10.07
64947;BMP280;51469;52.150;4.682;2024-01-15T02:52:48;100457.25;;;10.05
64947;BMP280;51469;52.150;4.682;2024-01-15T02:55:13;100439.66;;;10.06
64947;BMP280;51469;52.150;4.682;2024-01-15T02:57:38;100452.94;;;10.07
64947;BMP280;51469;52.150;4.682;2024-01-15T03:00:04;100447.44;;;10.04
64947;BMP280;51469;52.150;4.682;2024-01-15T03:02:30;100439.94;;;9.94
64947;BMP280;51469;52.150;4.682;2024-01-15T03:04:58;100445.75;;;9.85
64947;BMP280;51469;52.150;4.682;2024-01-15T03:07:24;100431.75;;;10.01
64947;BMP280;51469;52.150;4.682;2024-01-15T03:09:49;100434.09;;;9.99
64947;BMP280;51469;52.150;4.682;2024-01-15T03:12:15;100438.78;;;9.95
64947;BMP280;51469;52.150;4.682;2024-01-15T03:14:40;100436.97;;;10.13
64947;BMP280;51469;52.150;4.682;2024-01-15T03:17:06;100424.03;;;10.10
64947;BMP280;51469;52.150;4.682;2024-01-15T03:19:35;100450.09;;;10.44
64947;BMP280;51469;52.150;4.682;2024-01-15T03:22:00;100451.50;;;10.24
64947;BMP280;51469;52.150;4.682;2024-01-15T03:24:27;100450.78;;;10.27
64947;BMP280;51469;52.150;4.682;2024-01-15T03:26:53;100459.09;;;9.90
64947;BMP280;51469;52.150;4.682;2024-01-15T03:29:18;100459.81;;;9.84
64947;BMP280;51469;52.150;4.682;2024-01-15T03:31:43;100464.56;;;9.90
64947;BMP280;51469;52.150;4.682;2024-01-15T03:34:08;100462.19;;;9.48
64947;BMP280;51469;52.150;4.682;2024-01-15T03:36:34;100443.03;;;9.48
64947;BMP280;51469;52.150;4.682;2024-01-15T03:38:59;100447.91;;;9.66
64947;BMP280;51469;52.150;4.682;2024-01-15T03:41:24;100439.38;;;9.71
64947;BMP280;51469;52.150;4.682;2024-01-15T03:43:50;100441.59;;;9.62
64947;BMP280;51469;52.150;4.682;2024-01-15T03:46:15;100441.59;;;9.62
64947;BMP280;51469;52.150;4.682;2024-01-15T03:48:40;100435.34;;;9.61
64947;BMP280;51469;52.150;4.682;2024-01-15T03:51:06;100445.44;;;9.54
64947;BMP280;51469;52.150;4.682;2024-01-15T03:53:31;100441.59;;;9.62
64947;BMP280;51469;52.150;4.682;2024-01-15T03:55:56;100433.66;;;9.49
64947;BMP280;51469;52.150;4.682;2024-01-15T03:58:22;100432.13;;;9.15
64947;BMP280;51469;52.150;4.682;2024-01-15T04:00:47;100431.03;;;9.23
64947;BMP280;51469;52.150;4.682;2024-01-15T04:03:12;100422.28;;;9.11
64947;BMP280;51469;52.150;4.682;2024-01-15T04:05:38;100425.13;;;9.21
64947;BMP280;51469;52.150;4.682;2024-01-15T04:08:03;100417.25;;;9.16
64947;BMP280;51469;52.150;4.682;2024-01-15T04:10:29;100403.66;;;9.23
64947;BMP280;51469;52.150;4.682;2024-01-15T04:12:54;100400.50;;;9.21
64947;BMP280;51469;52.150;4.682;2024-01-15T04:15:19;100398.84;;;9.13
64947;BMP280;51469;52.150;4.682;2024-01-15T04:17:45;100403.41;;;8.99
64947;BMP280;51469;52.150;4.682;2024-01-15T04:20:10;100399.59;;;9.10
64947;BMP280;51469;52.150;4.682;2024-01-15T04:22:36;100412.97;;;9.15
64947;BMP280;51469;52.150;4.682;2024-01-15T04:25:02;100409.75;;;9.10
64947;BMP280;51469;52.150;4.682;2024-01-15T04:27:27;100423.63;;;9.24
64947;BMP280;51469;52.150;4.682;2024-01-15T04:29:53;100413.94;;;9.33
64947;BMP280;51469;52.150;4.682;2024-01-15T04:32:19;100415.94;;;9.03
64947;BMP280;51469;52.150;4.682;2024-01-15T04:34:44;100403.41;;;8.99
64947;BMP280;51469;52.150;4.682;2024-01-15T04:37:09;100394.97;;;9.14
64947;BMP280;51469;52.150;4.682;2024-01-15T04:39:35;100401.38;;;9.29
64947;BMP280;51469;52.150;4.682;2024-01-15T04:42:00;100382.63;;;9.27
64947;BMP280;51469;52.150;4.682;2024-01-15T04:44:26;100396.34;;;9.34
64947;BMP280;51469;52.150;4.682;2024-01-15T04:46:51;100391.28;;;9.36
64947;BMP280;51469;52.150;4.682;2024-01-15T04:49:16;100386.50;;;9.26
64947;BMP280;51469;52.150;4.682;2024-01-15T04:51:42;100380.66;;;9.31
64947;BMP280;51469;52.150;4.682;2024-01-15T04:54:07;100379.09;;;9.27
64947;BMP280;51469;52.150;4.682;2024-01-15T04:56:32;100384.16;;;9.28
64947;BMP280;51469;52.150;4.682;2024-01-15T04:58:58;100379.47;;;9.25
64947;BMP280;51469;52.150;4.682;2024-01-15T05:01:23;100370.38;;;9.18
64947;BMP280;51469;52.150;4.682;2024-01-15T05:03:48;100377.03;;;9.20
64947;BMP280;51469;52.150;4.682;2024-01-15T05:06:14;100372.28;;;9.14
64947;BMP280;51469;52.150;4.682;2024-01-15T05:08:40;100373.78;;;9.08
64947;BMP280;51469;52.150;4.682;2024-01-15T05:11:05;100371.72;;;9.01
64947;BMP280;51469;52.150;4.682;2024-01-15T05:13:30;100372.44;;;8.95
64947;BMP280;51469;52.150;4.682;2024-01-15T05:15:55;100360.22;;;8.85
64947;BMP280;51469;52.150;4.682;2024-01-15T05:18:21;100368.00;;;8.83
64947;BMP280;51469;52.150;4.682;2024-01-15T05:20:46;100367.31;;;8.90
64947;BMP280;51469;52.150;4.682;2024-01-15T05:23:11;100373.69;;;8.97
64947;BMP280;51469;52.150;4.682;2024-01-15T05:25:37;100372.16;;;9.03
64947;BMP280;51469;52.150;4.682;2024-01-15T05:28:02;100371.84;;;9.08
64947;BMP280;51469;52.150;4.682;2024-01-15T05:30:28;100368.63;;;8.99
64947;BMP280;51469;52.150;4.682;2024-01-15T05:32:53;100364.31;;;9.02
64947;BMP280;51469;52.150;4.682;2024-01-15T05:35:18;100350.31;;;9.07
64947;BMP280;51469;52.150;4.682;2024-01-15T05:37:44;100362.53;;;9.16
64947;BMP280;51469;52.150;4.682;2024-01-15T05:40:11;100350.56;;;9.31
64947;BMP280;51469;52.150;4.682;2024-01-15T05:42:37;100344.34;;;9.34
64947;BMP280;51469;52.150;4.682;2024-01-15T05:45:03;100343.56;;;9.34
64947;BMP280;51469;52.150;4.682;2024-01-15T05:47:30;100349.81;;;9.34
64947;BMP280;51469;52.150;4.682;2024-01-15T05:49:56;100348.66;;;9.35
64947;BMP280;51469;52.150;4.682;2024-01-15T05:52:21;100341.56;;;9.27
64947;BMP280;51469;52.150;4.682;2024-01-15T05:54:47;100338.81;;;9.27
64947;BMP280;51469;52.150;4.682;2024-01-15T05:57:12;100328.41;;;9.43
64947;BMP280;51469;52.150;4.682;2024-01-15T05:59:38;100330.66;;;9.34
64947;BMP280;51469;52.150;4.682;2024-01-15T06:02:03;100337.03;;;9.46
64947;BMP280;51469;52.150;4.682;2024-01-15T06:04:29;100358.59;;;9.51
64947;BMP280;51469;52.150;4.682;2024-01-15T06:06:54;100379.56;;;9.39
64947;BMP280;51469;52.150;4.682;2024-01-15T06:09:19;100368.31;;;9.08
64947;BMP280;51469;52.150;4.682;2024-01-15T06:11:45;100355.81;;;9.10
64947;BMP280;51469;52.150;4.682;2024-01-15T06:14:10;100356.66;;;9.14
64947;BMP280;51469;52.150;4.682;2024-01-15T06:16:35;100340.25;;;9.14
64947;BMP280;51469;52.150;4.682;2024-01-15T06:19:01;100359.13;;;9.26
64947;BMP280;51469;52.150;4.682;2024-01-15T06:21:26;100359.13;;;9.26
64947;BMP280;51469;52.150;4.682;2024-01-15T06:23:52;100355.25;;;9.27
64947;BMP280;51469;52.150;4.682;2024-01-15T06:26:17;100346.63;;;9.25
64947;BMP280;51469;52.150;4.682;2024-01-15T06:28:42;100357.97;;;9.27
64947;BMP280;51469;52.150;4.682;2024-01-15T06:31:08;100348.78;;;9.09
64947;BMP280;51469;52.150;4.682;2024-01-15T06:33:33;100347.31;;;9.19
64947;BMP280;51469;52.150;4.682;2024-01-15T06:35:58;100342.56;;;9.12
64947;BMP280;51469;52.150;4.682;2024-01-15T06:38:24;100337.97;;;9.23
64947;BMP280;51469;52.150;4.682;2024-01-15T06:40:50;100350.81;;;9.19
64947;BMP280;51469;52.150;4.682;2024-01-15T06:43:17;100357.50;;;9.18
64947;BMP280;51469;52.150;4.682;2024-01-15T06:45:43;100341.94;;;9.29
64947;BMP280;51469;52.150;4.682;2024-01-15T06:48:08;100348.84;;;9.16
64947;BMP280;51469;52.150;4.682;2024-01-15T06:50:34;100351.59;;;9.16
64947;BMP280;51469;52.150;4.682;2024-01-15T06:52:59;100354.31;;;9.16
64947;BMP280;51469;52.150;4.682;2024-01-15T06:55:24;100365.63;;;8.78
64947;BMP280;51469;52.150;4.682;2024-01-15T06:57:51;100382.75;;;8.75
64947;BMP280;51469;52.150;4.682;2024-01-15T07:00:16;100393.56;;;8.61
64947;BMP280;51469;52.150;4.682;2024-01-15T07:02:42;100389.56;;;8.29
64947;BMP280;51469;52.150;4.682;2024-01-15T07:05:07;100385.75;;;8.11
64947;BMP280;51469;52.150;4.682;2024-01-15T07:07:32;100377.56;;;8.37
64947;BMP280;51469;52.150;4.682;2024-01-15T07:09:58;100356.22;;;8.46
64947;BMP280;51469;52.150;4.682;2024-01-15T07:12:23;100358.25;;;8.53
64947;BMP280;51469;52.150;4.682;2024-01-15T07:14:49;100347.63;;;8.77
64947;BMP280;51469;52.150;4.682;2024-01-15T07:17:15;100345.72;;;8.81
64947;BMP280;51469;52.150;4.682;2024-01-15T07:19:40;100342.69;;;8.86
64947;BMP280;51469;52.150;4.682;2024-01-15T07:22:06;100349.69;;;8.54
64947;BMP280;51469;52.150;4.682;2024-01-15T07:24:32;100352.63;;;8.42
64947;BMP280;51469;52.150;4.682;2024-01-15T07:26:59;100348.13;;;8.53
64947;BMP280;51469;52.150;4.682;2024-01-15T07:29:25;100363.31;;;8.21
64947;BMP280;51469;52.150;4.682;2024-01-15T07:31:50;100359.50;;;8.29
64947;BMP280;51469;52.150;4.682;2024-01-15T07:34:16;100342.47;;;8.39
64947;BMP280;51469;52.150;4.682;2024-01-15T07:36:44;100345.63;;;8.41
64947;BMP280;51469;52.150;4.682;2024-01-15T07:39:09;100360.53;;;8.47
64947;BMP280;51469;52.150;4.682;2024-01-15T07:41:35;100352.69;;;8.46
64947;BMP280;51469;52.150;4.682;2024-01-15T07:44:00;100355.53;;;8.53
64947;BMP280;51469;52.150;4.682;2024-01-15T07:46:25;100355.28;;;8.61
64947;BMP280;51469;52.150;4.682;2024-01-15T07:48:51;100350.53;;;8.62
64947;BMP280;51469;52.150;4.682;2024-01-15T07:51:21;100354.13;;;8.66
64947;BMP280;51469;52.150;4.682;2024-01-15T07:53:47;100349.81;;;8.61
64947;BMP280;51469;52.150;4.682;2024-01-15T07:56:12;100354.34;;;8.54
64947;BMP280;51469;52.150;4.682;2024-01-15T07:58:38;100358.25;;;8.53
64947;BMP280;51469;52.150;4.682;2024-01-15T08:01:03;100349.66;;;8.51
64947;BMP280;51469;52.150;4.682;2024-01-15T08:03:28;100369.91;;;8.46
64947;BMP280;51469;52.150;4.682;2024-01-15T08:05:54;100377.78;;;8.51
64947;BMP280;51469;52.150;4.682;2024-01-15T08:08:21;100384.16;;;8.62
64947;BMP280;51469;52.150;4.682;2024-01-15T08:10:49;100372.41;;;8.58
64947;BMP280;51469;52.150;4.682;2024-01-15T08:13:14;100377.53;;;8.63
64947;BMP280;51469;52.150;4.682;2024-01-15T08:15:41;100376.38;;;8.64
64947;BMP280;51469;52.150;4.682;2024-01-15T08:18:06;100373.38;;;8.73
64947;BMP280;51469;52.150;4.682;2024-01-15T08:20:32;100372.47;;;8.65
64947;BMP280;51469;52.150;4.682;2024-01-15T08:22:57;100368.97;;;8.65
64947;BMP280;51469;52.150;4.682;2024-01-15T08:25:23;100364.88;;;8.81
64947;BMP280;51469;52.150;4.682;2024-01-15T08:27:48;100355.09;;;8.80
64947;BMP280;51469;52.150;4.682;2024-01-15T08:30:14;100353.19;;;8.84
64947;BMP280;51469;52.150;4.682;2024-01-15T08:32:39;100348.09;;;8.83
64947;BMP280;51469;52.150;4.682;2024-01-15T08:35:08;100355.28;;;8.94
64947;BMP280;51469;52.150;4.682;2024-01-15T08:37:34;100347.88;;;8.98
64947;BMP280;51469;52.150;4.682;2024-01-15T08:39:59;100355.38;;;9.05
64947;BMP280;51469;52.150;4.682;2024-01-15T08:42:25;100349.53;;;9.10
64947;BMP280;51469;52.150;4.682;2024-01-15T08:44:50;100356.28;;;9.19
64947;BMP280;51469;52.150;4.682;2024-01-15T08:47:16;100370.22;;;9.04
64947;BMP280;51469;52.150;4.682;2024-01-15T08:49:42;100396.00;;;8.73
64947;BMP280;51469;52.150;4.682;2024-01-15T08:52:09;100389.75;;;8.69
64947;BMP280;51469;52.150;4.682;2024-01-15T08:54:34;100381.97;;;8.71
64947;BMP280;51469;52.150;4.682;2024-01-15T08:57:00;100379.81;;;8.87
64947;BMP280;51469;52.150;4.682;2024-01-15T08:59:25;100376.09;;;8.73
64947;BMP280;51469;52.150;4.682;2024-01-15T09:01:52;100377.34;;;8.79
64947;BMP280;51469;52.150;4.682;2024-01-15T09:04:17;100373.75;;;8.71
64947;BMP280;51469;52.150;4.682;2024-01-15T09:06:45;100392.13;;;8.74
64947;BMP280;51469;52.150;4.682;2024-01-15T09:09:11;100395.31;;;8.80
64947;BMP280;51469;52.150;4.682;2024-01-15T09:11:36;100396.97;;;8.84
64947;BMP280;51469;52.150;4.682;2024-01-15T09:14:01;100388.44;;;8.89
64947;BMP280;51469;52.150;4.682;2024-01-15T09:16:27;100384.28;;;9.02
64947;BMP280;51469;52.150;4.682;2024-01-15T09:18:52;100390.03;;;8.94
64947;BMP280;51469;52.150;4.682;2024-01-15T09:21:18;100391.22;;;8.96
64947;BMP280;51469;52.150;4.682;2024-01-15T09:23:43;100378.47;;;9.07
64947;BMP280;51469;52.150;4.682;2024-01-15T09:26:08;100380.44;;;9.10
64947;BMP280;51469;52.150;4.682;2024-01-15T09:28:34;100384.75;;;9.11
64947;BMP280;51469;52.150;4.682;2024-01-15T09:30:59;100388.16;;;9.01
64947;BMP280;51469;52.150;4.682;2024-01-15T09:33:25;100397.91;;;8.99
64947;BMP280;51469;52.150;4.682;2024-01-15T09:35:50;100396.63;;;9.22
64947;BMP280;51469;52.150;4.682;2024-01-15T09:38:15;100392.03;;;9.33
64947;BMP280;51469;52.150;4.682;2024-01-15T09:40:43;100385.34;;;9.27
64947;BMP280;51469;52.150;4.682;2024-01-15T09:43:08;100374.78;;;9.29
64947;BMP280;51469;52.150;4.682;2024-01-15T09:45:34;100375.75;;;9.44
64947;BMP280;51469;52.150;4.682;2024-01-15T09:47:59;100380.06;;;9.48
64947;BMP280;51469;52.150;4.682;2024-01-15T09:50:25;100369.19;;;9.15
64947;BMP280;51469;52.150;4.682;2024-01-15T09:52:50;100374.25;;;9.54
64947;BMP280;51469;52.150;4.682;2024-01-15T09:55:17;100382.94;;;9.63
64947;BMP280;51469;52.150;4.682;2024-01-15T09:57:44;100378.84;;;9.43
64947;BMP280;51469;52.150;4.682;2024-01-15T10:00:10;100383.31;;;9.65
64947;BMP280;51469;52.150;4.682;2024-01-15T10:02:36;100369.00;;;9.82
64947;BMP280;51469;52.150;4.682;2024-01-15T10:05:02;100366.78;;;9.98
64947;BMP280;51469;52.150;4.682;2024-01-15T10:07:29;100371.09;;;9.99
64947;BMP280;51469;52.150;4.682;2024-01-15T10:09:54;100384.84;;;10.06
64947;BMP280;51469;52.150;4.682;2024-01-15T10:12:21;100386.06;;;10.12
64947;BMP280;51469;52.150;4.682;2024-01-15T10:14:48;100392.03;;;10.28
64947;BMP280;51469;52.150;4.682;2024-01-15T10:17:14;100391.28;;;10.31
64947;BMP280;51469;52.150;4.682;2024-01-15T10:19:40;100384.34;;;10.58
64947;BMP280;51469;52.150;4.682;2024-01-15T10:22:08;100380.06;;;10.60
64947;BMP280;51469;52.150;4.682;2024-01-15T10:24:37;100406.75;;;10.74
64947;BMP280;51469;52.150;4.682;2024-01-15T10:27:07;100414.75;;;10.28
64947;BMP280;51469;52.150;4.682;2024-01-15T10:29:34;100410.44;;;10.27
64947;BMP280;51469;52.150;4.682;2024-01-15T10:31:59;100400.97;;;10.18
64947;BMP280;51469;52.150;4.682;2024-01-15T10:34:26;100400.09;;;10.07
64947;BMP280;51469;52.150;4.682;2024-01-15T10:36:52;100402.84;;;10.07
64947;BMP280;51469;52.150;4.682;2024-01-15T10:39:24;100420.84;;;10.08
64947;BMP280;51469;52.150;4.682;2024-01-15T10:41:50;100434.75;;;9.82
64947;BMP280;51469;52.150;4.682;2024-01-15T10:44:18;100446.38;;;8.98
64947;BMP280;51469;52.150;4.682;2024-01-15T10:46:45;100443.19;;;8.96
64947;BMP280;51469;52.150;4.682;2024-01-15T10:49:13;100436.25;;;9.02
64947;BMP280;51469;52.150;4.682;2024-01-15T10:51:39;100427.53;;;8.93
64947;BMP280;51469;52.150;4.682;2024-01-15T10:54:05;100430.09;;;9.09
64947;BMP280;51469;52.150;4.682;2024-01-15T10:56:31;100420.00;;;9.16
64947;BMP280;51469;52.150;4.682;2024-01-15T10:58:59;100424.53;;;9.35
64947;BMP280;51469;52.150;4.682;2024-01-15T11:01:24;100430.16;;;9.52
64947;BMP280;51469;52.150;4.682;2024-01-15T11:03:50;100429.13;;;9.68
64947;BMP280;51469;52.150;4.682;2024-01-15T11:06:16;100424.56;;;9.79
64947;BMP280;51469;52.150;4.682;2024-01-15T11:08:46;100418.31;;;9.82
64947;BMP280;51469;52.150;4.682;2024-01-15T11:11:11;100418.59;;;10.17
64947;BMP280;51469;52.150;4.682;2024-01-15T11:16:03;100454.84;;;10.00
64947;BMP280;51469;52.150;4.682;2024-01-15T11:18:35;100461.03;;;9.49
64947;BMP280;51469;52.150;4.682;2024-01-15T11:28:55;100435.16;;;9.43
64947;BMP280;51469;52.150;4.682;2024-01-15T11:34:06;100452.38;;;9.47
64947;BMP280;51469;52.150;4.682;2024-01-15T11:42:03;100463.31;;;9.07
64947;BMP280;51469;52.150;4.682;2024-01-15T11:44:29;100464.78;;;9.34
64947;BMP280;51469;52.150;4.682;2024-01-15T11:47:05;100454.81;;;9.52
64947;BMP280;51469;52.150;4.682;2024-01-15T11:52:11;100464.88;;;9.82
64947;BMP280;51469;52.150;4.682;2024-01-15T11:54:48;100468.06;;;9.91
64947;BMP280;51469;52.150;4.682;2024-01-15T11:57:25;100463.38;;;9.88
64947;BMP280;51469;52.150;4.682;2024-01-15T11:59:51;100473.97;;;9.93
64947;BMP280;51469;52.150;4.682;2024-01-15T12:02:16;100470.75;;;9.80
64947;BMP280;51469;52.150;4.682;2024-01-15T12:04:41;100475.16;;;9.52
64947;BMP280;51469;52.150;4.682;2024-01-15T12:07:07;100478.81;;;9.66
64947;BMP280;51469;52.150;4.682;2024-01-15T12:09:33;100466.38;;;9.76
64947;BMP280;51469;52.150;4.682;2024-01-15T12:12:03;100473.31;;;9.66
64947;BMP280;51469;52.150;4.682;2024-01-15T12:14:32;100462.63;;;9.51
64947;BMP280;51469;52.150;4.682;2024-01-15T12:17:00;100474.66;;;9.43
64947;BMP280;51469;52.150;4.682;2024-01-15T12:19:28;100481.44;;;9.56
64947;BMP280;51469;52.150;4.682;2024-01-15T12:21:54;100472.78;;;9.50
64947;BMP280;51469;52.150;4.682;2024-01-15T12:24:20;100470.56;;;9.63
64947;BMP280;51469;52.150;4.682;2024-01-15T12:26:45;100462.72;;;9.61
64947;BMP280;51469;52.150;4.682;2024-01-15T12:29:11;100471.38;;;9.67
64947;BMP280;51469;52.150;4.682;2024-01-15T12:31:36;100473.03;;;9.75
64947;BMP280;51469;52.150;4.682;2024-01-15T12:34:02;100476.66;;;9.86
64947;BMP280;51469;52.150;4.682;2024-01-15T12:36:30;100487.66;;;9.89
64947;BMP280;51469;52.150;4.682;2024-01-15T12:38:59;100492.81;;;9.98
64947;BMP280;51469;52.150;4.682;2024-01-15T12:41:25;100490.47;;;10.00
64947;BMP280;51469;52.150;4.682;2024-01-15T12:43:50;100491.34;;;10.11
64947;BMP280;51469;52.150;4.682;2024-01-15T12:46:16;100490.72;;;10.28
64947;BMP280;51469;52.150;4.682;2024-01-15T12:48:41;100482.91;;;10.30
64947;BMP280;51469;52.150;4.682;2024-01-15T12:51:07;100482.63;;;10.49
64947;BMP280;51469;52.150;4.682;2024-01-15T12:53:33;100481.13;;;10.55
64947;BMP280;51469;52.150;4.682;2024-01-15T12:55:58;100476.47;;;10.66
64947;BMP280;51469;52.150;4.682;2024-01-15T12:58:23;100475.41;;;10.88
64947;BMP280;51469;52.150;4.682;2024-01-15T13:00:49;100485.72;;;11.12
64947;BMP280;51469;52.150;4.682;2024-01-15T13:03:14;100489.63;;;11.11
64947;BMP280;51469;52.150;4.682;2024-01-15T13:05:40;100488.88;;;11.21
64947;BMP280;51469;52.150;4.682;2024-01-15T13:08:06;100510.03;;;11.10
64947;BMP280;51469;52.150;4.682;2024-01-15T13:10:32;100509.84;;;10.75
64947;BMP280;51469;52.150;4.682;2024-01-15T13:12:57;100508.16;;;10.60
64947;BMP280;51469;52.150;4.682;2024-01-15T13:15:23;100509.28;;;10.45
64947;BMP280;51469;52.150;4.682;2024-01-15T13:17:48;100507.25;;;10.42
64947;BMP280;51469;52.150;4.682;2024-01-15T13:20:13;100506.53;;;10.45
64947;BMP280;51469;52.150;4.682;2024-01-15T13:22:39;100507.22;;;10.35
64947;BMP280;51469;52.150;4.682;2024-01-15T13:25:05;100499.38;;;10.30
64947;BMP280;51469;52.150;4.682;2024-01-15T13:27:32;100498.38;;;10.05
64947;BMP280;51469;52.150;4.682;2024-01-15T13:29:59;100506.97;;;10.03
64947;BMP280;51469;52.150;4.682;2024-01-15T13:32:25;100496.78;;;10.04
64947;BMP280;51469;52.150;4.682;2024-01-15T13:34:51;100494.00;;;9.97
64947;BMP280;51469;52.150;4.682;2024-01-15T13:37:17;100487.34;;;9.98
64947;BMP280;51469;52.150;4.682;2024-01-15T13:39:42;100496.78;;;10.04
64947;BMP280;51469;52.150;4.682;2024-01-15T13:42:07;100495.63;;;10.05
64947;BMP280;51469;52.150;4.682;2024-01-15T13:44:33;100499.63;;;10.18
64947;BMP280;51469;52.150;4.682;2024-01-15T13:46:58;100506.81;;;10.33
64947;BMP280;51469;52.150;4.682;2024-01-15T13:49:24;100508.91;;;10.46
64947;BMP280;51469;52.150;4.682;2024-01-15T13:51:49;100506.66;;;10.66
64947;BMP280;51469;52.150;4.682;2024-01-15T13:54:15;100509.69;;;10.50
64947;BMP280;51469;52.150;4.682;2024-01-15T13:56:40;100513.44;;;10.28
64947;BMP280;51469;52.150;4.682;2024-01-15T13:59:06;100516.50;;;10.20
64947;BMP280;51469;52.150;4.682;2024-01-15T14:01:32;100511.28;;;9.68
64947;BMP280;51469;52.150;4.682;2024-01-15T14:03:58;100515.97;;;10.04
64947;BMP280;51469;52.150;4.682;2024-01-15T14:06:23;100522.53;;;9.96
64947;BMP280;51469;52.150;4.682;2024-01-15T14:08:49;100528.91;;;9.67
64947;BMP280;51469;52.150;4.682;2024-01-15T14:11:14;100538.16;;;9.92
64947;BMP280;51469;52.150;4.682;2024-01-15T14:13:40;100532.75;;;9.99
64947;BMP280;51469;52.150;4.682;2024-01-15T14:16:05;100534.69;;;9.95
64947;BMP280;51469;52.150;4.682;2024-01-15T14:18:31;100539.84;;;10.03